createdAt,value
2018-07-22T00:00:50.711Z,10.77
2018-07-22T00:03:19.764Z,10.20
2018-07-22T00:05:48.852Z,10.80
2018-07-22T00:08:17.954Z,11.13
2018-07-22T00:10:47.052Z,11.07
2018-07-22T00:13:16.127Z,11.37
2018-07-22T00:15:45.191Z,12.27
2018-07-22T00:18:14.259Z,12.57
2018-07-22T00:20:43.059Z,13.70
2018-07-22T00:23:11.719Z,13.83
2018-07-22T00:25:40.699Z,15.13
2018-07-22T00:28:09.766Z,14.73
2018-07-22T00:30:38.846Z,16.23
2018-07-22T00:33:07.927Z,16.73
2018-07-22T00:35:36.980Z,19.33
2018-07-22T00:38:06.066Z,21.03
2018-07-22T00:40:35.154Z,21.27
2018-07-22T00:43:04.241Z,22.83
2018-07-22T00:45:33.307Z,21.40
2018-07-22T00:48:02.395Z,24.40
2018-07-22T00:50:31.446Z,25.87
2018-07-22T00:53:00.508Z,26.37
2018-07-22T00:55:29.599Z,26.80
2018-07-22T00:57:58.674Z,28.67
2018-07-22T01:00:27.767Z,28.10
2018-07-22T01:02:56.845Z,27.23
2018-07-22T01:05:25.919Z,25.53
2018-07-22T01:07:55.011Z,26.70
2018-07-22T01:10:24.115Z,28.67
2018-07-22T01:12:53.236Z,29.10
2018-07-22T01:15:22.299Z,30.63
2018-07-22T01:17:51.370Z,30.33
2018-07-22T01:20:20.441Z,31.60
2018-07-22T01:22:49.513Z,31.97
2018-07-22T01:25:18.587Z,32.03
2018-07-22T01:27:47.687Z,31.80
2018-07-22T01:30:16.762Z,31.73
2018-07-22T01:32:45.852Z,31.87
2018-07-22T01:35:14.910Z,33.47
2018-07-22T01:37:43.701Z,33.30
2018-07-22T01:40:12.705Z,32.63
2018-07-22T01:42:41.752Z,31.90
2018-07-22T01:45:10.820Z,33.50
2018-07-22T01:47:40.221Z,31.43
2018-07-22T01:50:09.272Z,30.70
2018-07-22T01:52:38.336Z,31.63
2018-07-22T01:55:07.663Z,34.80
2018-07-22T01:57:36.802Z,36.60
2018-07-22T02:00:05.936Z,35.57
2018-07-22T02:02:35.014Z,36.10
2018-07-22T02:05:04.396Z,38.80
2018-07-22T02:07:33.460Z,38.10
2018-07-22T02:10:02.532Z,37.60
2018-07-22T02:12:31.644Z,39.20
2018-07-22T02:15:00.724Z,39.00
2018-07-22T02:17:29.811Z,37.90
2018-07-22T02:19:58.871Z,39.13
2018-07-22T02:22:27.965Z,40.00
2018-07-22T02:24:57.028Z,40.00
2018-07-22T02:27:26.108Z,33.60
2018-07-22T02:29:55.165Z,38.40
2018-07-22T02:32:24.236Z,39.27
2018-07-22T02:34:53.328Z,42.03
2018-07-22T02:37:22.399Z,42.70
2018-07-22T02:39:51.494Z,38.77
2018-07-22T02:42:20.584Z,36.67
2018-07-22T02:44:49.643Z,35.03
2018-07-22T02:47:18.733Z,34.30
2018-07-22T02:49:47.789Z,35.13
2018-07-22T02:52:16.852Z,34.60
2018-07-22T02:54:45.959Z,33.73
2018-07-22T02:57:15.016Z,36.67
2018-07-22T02:59:43.842Z,34.70
2018-07-22T03:02:12.811Z,35.27
2018-07-22T03:04:41.876Z,37.47
2018-07-22T03:07:10.957Z,35.87
2018-07-22T03:09:40.054Z,33.63
2018-07-22T03:12:09.788Z,36.37
2018-07-22T03:14:38.842Z,33.63
2018-07-22T03:17:08.829Z,38.10
2018-07-22T03:19:38.147Z,37.07
2018-07-22T03:22:07.212Z,36.17
2018-07-22T03:24:36.277Z,36.33
2018-07-22T03:27:05.658Z,34.40
2018-07-22T03:29:34.727Z,33.73
2018-07-22T03:32:03.951Z,34.00
2018-07-22T03:34:33.011Z,36.20
2018-07-22T03:37:02.075Z,35.90
2018-07-22T03:39:31.145Z,39.87
2018-07-22T03:42:00.215Z,40.67
2018-07-22T03:44:29.371Z,44.93
2018-07-22T03:46:58.466Z,41.37
2018-07-22T03:49:27.530Z,43.20
2018-07-22T03:51:56.626Z,42.30
2018-07-22T03:54:25.792Z,42.90
2018-07-22T03:56:54.871Z,41.40
2018-07-22T03:59:23.952Z,43.27
2018-07-22T04:01:53.039Z,43.63
2018-07-22T04:04:22.140Z,43.50
2018-07-22T04:06:51.212Z,43.50
2018-07-22T04:09:20.272Z,43.00
2018-07-22T04:11:49.058Z,41.87
2018-07-22T04:14:18.031Z,41.00
2018-07-22T04:16:46.978Z,40.57
2018-07-22T04:19:15.912Z,40.50
2018-07-22T04:21:44.977Z,38.33
2018-07-22T04:24:14.047Z,39.00
2018-07-22T04:26:43.108Z,39.17
2018-07-22T04:29:11.895Z,37.27
2018-07-22T04:31:40.909Z,37.33
2018-07-22T04:34:09.962Z,37.60
2018-07-22T04:36:39.051Z,35.93
2018-07-22T04:39:09.635Z,38.00
2018-07-22T04:41:38.759Z,34.73
2018-07-22T04:44:08.024Z,33.23
2018-07-22T04:46:37.145Z,32.67
2018-07-22T04:49:06.216Z,34.67
2018-07-22T04:51:35.035Z,35.43
2018-07-22T04:54:03.985Z,34.83
2018-07-22T04:56:33.042Z,34.60
2018-07-22T04:59:02.137Z,33.07
2018-07-22T05:01:31.199Z,32.27
2018-07-22T05:04:00.254Z,31.60
2018-07-22T05:06:29.312Z,29.77
2018-07-22T05:08:58.400Z,28.30
2018-07-22T05:11:27.476Z,28.60
2018-07-22T05:13:56.531Z,25.50
2018-07-22T05:16:25.607Z,23.17
2018-07-22T05:18:54.694Z,23.77
2018-07-22T05:21:23.785Z,23.13
2018-07-22T05:23:52.863Z,20.47
2018-07-22T05:26:21.921Z,22.10
2018-07-22T05:28:51.007Z,21.50
2018-07-22T05:31:20.067Z,20.47
2018-07-22T05:33:49.155Z,19.03
2018-07-22T05:36:18.218Z,19.07
2018-07-22T05:38:47.306Z,17.73
2018-07-22T05:41:16.363Z,17.90
2018-07-22T05:43:45.451Z,16.90
2018-07-22T05:46:14.522Z,16.70
2018-07-22T05:48:43.640Z,15.87
2018-07-22T05:51:12.710Z,15.67
2018-07-22T05:53:41.831Z,15.13
2018-07-22T05:56:10.903Z,13.70
2018-07-22T05:58:39.982Z,14.00
2018-07-22T06:01:09.031Z,14.80
2018-07-22T06:03:38.098Z,14.73
2018-07-22T06:06:07.171Z,14.53
2018-07-22T06:08:36.237Z,14.60
2018-07-22T06:11:05.344Z,12.83
2018-07-22T06:13:34.400Z,12.53
2018-07-22T06:16:03.471Z,12.43
2018-07-22T06:18:32.534Z,11.10
2018-07-22T06:21:01.604Z,10.67
2018-07-22T06:23:30.725Z,10.47
2018-07-22T06:25:59.742Z,10.47
2018-07-22T06:28:28.899Z,10.93
2018-07-22T06:30:57.978Z,9.70
2018-07-22T06:33:27.056Z,9.77
2018-07-22T06:35:56.117Z,10.30
2018-07-22T06:38:25.184Z,10.00
2018-07-22T06:40:54.255Z,8.73
2018-07-22T06:43:23.327Z,8.97
2018-07-22T06:45:52.400Z,8.93
2018-07-22T06:48:21.463Z,8.97
2018-07-22T06:50:50.548Z,9.20
2018-07-22T06:53:19.615Z,9.23
2018-07-22T06:55:48.747Z,9.17
2018-07-22T06:58:17.767Z,8.37
2018-07-22T07:00:46.871Z,7.90
2018-07-22T07:03:15.878Z,7.87
2018-07-22T07:05:44.932Z,7.87
2018-07-22T07:08:14.012Z,8.60
2018-07-22T07:10:43.075Z,8.33
2018-07-22T07:13:12.132Z,8.03
2018-07-22T07:15:41.198Z,9.10
2018-07-22T07:18:10.271Z,8.40
2018-07-22T07:20:39.427Z,9.17
2018-07-22T07:23:08.243Z,9.07
2018-07-22T07:25:37.264Z,9.67
2018-07-22T07:28:06.313Z,8.60
2018-07-22T07:30:35.360Z,9.37
2018-07-22T07:33:04.431Z,9.03
2018-07-22T07:35:33.499Z,8.43
2018-07-22T07:38:02.695Z,8.33
2018-07-22T07:40:31.766Z,8.37
2018-07-22T07:43:00.858Z,7.80
2018-07-22T07:45:29.904Z,8.83
2018-07-22T07:47:59.088Z,7.50
2018-07-22T07:50:28.127Z,7.00
2018-07-22T07:52:57.173Z,8.13
2018-07-22T07:55:26.227Z,8.40
2018-07-22T07:57:55.294Z,8.43
2018-07-22T08:00:24.335Z,8.00
2018-07-22T08:02:53.432Z,8.13
2018-07-22T08:05:22.537Z,7.30
2018-07-22T08:07:51.661Z,7.83
2018-07-22T08:10:20.734Z,7.97
2018-07-22T08:12:49.793Z,6.27
2018-07-22T08:15:18.866Z,8.37
2018-07-22T08:17:47.993Z,8.20
2018-07-22T08:20:16.807Z,8.90
2018-07-22T08:22:45.734Z,8.60
2018-07-22T08:25:14.839Z,9.53
2018-07-22T08:27:43.940Z,9.07
2018-07-22T08:30:12.859Z,9.23
2018-07-22T08:32:41.546Z,10.43
2018-07-22T08:35:10.251Z,8.63
2018-07-22T08:37:38.902Z,7.47
2018-07-22T08:40:07.646Z,7.63
2018-07-22T08:42:36.329Z,7.33
2018-07-22T08:45:05.352Z,8.20
2018-07-22T08:47:34.046Z,7.77
2018-07-22T08:50:02.779Z,6.63
2018-07-22T08:52:31.436Z,7.73
2018-07-22T08:55:00.111Z,7.03
2018-07-22T08:57:28.819Z,7.33
2018-07-22T08:59:57.519Z,6.63
2018-07-22T09:02:26.218Z,6.80
2018-07-22T09:04:54.975Z,8.00
2018-07-22T09:07:23.646Z,7.23
2018-07-22T09:09:52.368Z,6.80
2018-07-22T09:12:21.058Z,6.90
2018-07-22T09:14:49.860Z,5.80
2018-07-22T09:17:18.776Z,6.30
2018-07-22T09:19:47.447Z,6.10
2018-07-22T09:22:16.154Z,6.97
2018-07-22T09:24:44.842Z,6.70
2018-07-22T09:27:13.540Z,7.23
2018-07-22T09:29:42.315Z,5.63
2018-07-22T09:32:10.994Z,4.50
2018-07-22T09:34:39.770Z,4.70
2018-07-22T09:37:08.456Z,4.80
2018-07-22T09:39:37.178Z,4.40
2018-07-22T09:42:05.838Z,4.27
2018-07-22T09:44:34.515Z,4.57
2018-07-22T09:47:03.184Z,4.93
2018-07-22T09:49:31.849Z,4.80
2018-07-22T09:52:00.568Z,5.07
2018-07-22T09:54:29.388Z,5.93
2018-07-22T09:56:58.162Z,5.63
2018-07-22T09:59:26.834Z,5.70
2018-07-22T10:01:55.542Z,6.33
2018-07-22T10:04:24.321Z,7.00
2018-07-22T10:06:52.962Z,6.70
2018-07-22T10:09:21.688Z,7.17
2018-07-22T10:11:50.389Z,7.10
2018-07-22T10:14:19.085Z,6.37
2018-07-22T10:16:47.783Z,7.77
2018-07-22T10:19:16.550Z,7.33
2018-07-22T10:21:45.228Z,8.20
2018-07-22T10:24:14.048Z,10.23
2018-07-22T10:26:42.729Z,11.40
2018-07-22T10:29:11.405Z,12.23
2018-07-22T10:31:40.202Z,9.77
2018-07-22T10:34:08.888Z,10.90
2018-07-22T10:36:37.553Z,9.37
2018-07-22T10:39:07.498Z,8.13
2018-07-22T10:41:36.250Z,7.87
2018-07-22T10:44:05.086Z,7.40
2018-07-22T10:46:33.743Z,7.77
2018-07-22T10:49:02.495Z,6.67
2018-07-22T10:51:31.210Z,6.23
2018-07-22T10:54:00.107Z,6.50
2018-07-22T10:56:28.788Z,7.33
2018-07-22T10:58:57.583Z,6.43
2018-07-22T11:01:26.470Z,7.43
2018-07-22T11:03:55.143Z,7.33
2018-07-22T11:06:23.846Z,7.43
2018-07-22T11:08:52.531Z,9.47
2018-07-22T11:11:21.220Z,8.73
2018-07-22T11:13:49.988Z,9.37
2018-07-22T11:16:18.642Z,9.77
2018-07-22T11:18:47.376Z,9.50
2018-07-22T11:21:16.243Z,10.00
2018-07-22T11:23:44.859Z,10.23
2018-07-22T11:26:13.548Z,8.67
2018-07-22T11:28:42.304Z,8.00
2018-07-22T11:31:10.916Z,7.30
2018-07-22T11:33:39.603Z,5.60
2018-07-22T11:36:08.465Z,9.20
2018-07-22T11:38:37.067Z,8.80
2018-07-22T11:41:05.763Z,8.80
2018-07-22T11:43:34.450Z,7.37
2018-07-22T11:46:03.114Z,6.53
2018-07-22T11:48:31.806Z,7.93
2018-07-22T11:51:00.479Z,6.43
2018-07-22T11:53:29.142Z,6.70
2018-07-22T11:55:57.878Z,5.90
2018-07-22T11:58:26.541Z,5.23
2018-07-22T12:00:55.234Z,3.80
2018-07-22T12:03:23.901Z,5.57
2018-07-22T12:05:52.635Z,7.10
2018-07-22T12:08:21.295Z,6.17
2018-07-22T12:10:49.994Z,5.07
2018-07-22T12:13:18.758Z,5.33
2018-07-22T12:15:47.454Z,5.83
2018-07-22T12:18:16.134Z,7.07
2018-07-22T12:20:44.834Z,6.97
2018-07-22T12:23:13.534Z,5.40
2018-07-22T12:25:42.202Z,6.30
2018-07-22T12:28:10.924Z,5.40
2018-07-22T12:30:39.537Z,5.60
2018-07-22T12:33:08.190Z,7.00
2018-07-22T12:35:36.846Z,6.77
2018-07-22T12:38:05.627Z,5.57
2018-07-22T12:40:34.310Z,6.73
2018-07-22T12:43:02.995Z,5.70
2018-07-22T12:45:31.690Z,6.40
2018-07-22T12:48:00.677Z,6.07
2018-07-22T12:50:29.346Z,5.60
2018-07-22T12:52:58.004Z,4.23
2018-07-22T12:55:26.746Z,7.67
2018-07-22T12:57:55.413Z,6.73
2018-07-22T13:00:24.079Z,7.73
2018-07-22T13:02:52.717Z,5.50
2018-07-22T13:05:21.489Z,5.80
2018-07-22T13:07:50.171Z,6.07
2018-07-22T13:10:18.854Z,7.30
2018-07-22T13:12:47.647Z,5.30
2018-07-22T13:15:16.439Z,5.60
2018-07-22T13:17:45.131Z,5.70
2018-07-22T13:20:13.899Z,6.10
2018-07-22T13:22:42.708Z,8.73
2018-07-22T13:25:11.403Z,7.70
2018-07-22T13:27:40.170Z,8.73
2018-07-22T13:30:08.866Z,8.37
2018-07-22T13:32:37.559Z,8.60
2018-07-22T13:35:06.235Z,8.57
2018-07-22T13:37:34.910Z,6.73
2018-07-22T13:40:03.902Z,7.23
2018-07-22T13:42:32.545Z,6.73
2018-07-22T13:45:01.258Z,5.33
2018-07-22T13:47:29.974Z,5.60
2018-07-22T13:49:58.659Z,6.43
2018-07-22T13:52:27.324Z,5.30
2018-07-22T13:54:56.016Z,5.90
2018-07-22T13:57:24.683Z,5.10
2018-07-22T13:59:53.414Z,5.57
2018-07-22T14:02:22.059Z,7.00
2018-07-22T14:04:50.716Z,5.90
2018-07-22T14:07:19.437Z,5.80
2018-07-22T14:09:48.055Z,5.40
2018-07-22T14:12:16.728Z,6.03
2018-07-22T14:14:45.390Z,6.27
2018-07-22T14:17:14.051Z,5.07
2018-07-22T14:19:42.727Z,5.67
2018-07-22T14:22:11.410Z,7.00
2018-07-22T14:24:40.138Z,5.97
2018-07-22T14:27:08.794Z,6.20
2018-07-22T14:29:37.488Z,6.30
2018-07-22T14:32:06.190Z,7.73
2018-07-22T14:34:34.882Z,6.37
2018-07-22T14:37:03.584Z,7.20
2018-07-22T14:39:32.249Z,6.73
2018-07-22T14:42:00.904Z,7.80
2018-07-22T14:44:29.558Z,6.53
2018-07-22T14:46:58.268Z,7.50
2018-07-22T14:49:26.879Z,7.23
2018-07-22T14:51:55.547Z,7.80
2018-07-22T14:54:24.202Z,7.87
2018-07-22T14:56:52.868Z,7.13
2018-07-22T14:59:22.466Z,5.30
2018-07-22T15:01:51.118Z,5.80
2018-07-22T15:04:19.778Z,4.87
2018-07-22T15:06:48.446Z,5.53
2018-07-22T15:09:17.122Z,5.67
2018-07-22T15:11:45.805Z,5.20
2018-07-22T15:14:14.458Z,5.30
2018-07-22T15:16:43.162Z,6.77
2018-07-22T15:19:11.858Z,5.87
2018-07-22T15:21:40.530Z,6.47
2018-07-22T15:24:09.179Z,6.80
2018-07-22T15:26:37.838Z,6.33
2018-07-22T15:29:06.569Z,5.70
2018-07-22T15:31:35.197Z,5.33
2018-07-22T15:34:03.922Z,6.13
2018-07-22T15:36:32.662Z,5.20
2018-07-22T15:39:01.355Z,6.03
2018-07-22T15:41:30.052Z,6.07
2018-07-22T15:43:58.707Z,6.10
2018-07-22T15:46:27.406Z,5.40
2018-07-22T15:48:56.082Z,6.00
2018-07-22T15:51:24.774Z,7.17
2018-07-22T15:53:53.444Z,5.97
2018-07-22T15:56:22.292Z,5.40
2018-07-22T15:58:50.959Z,8.33
2018-07-22T16:01:19.642Z,6.90
2018-07-22T16:03:48.264Z,6.63
2018-07-22T16:06:16.918Z,6.30
2018-07-22T16:08:45.906Z,5.77
2018-07-22T16:11:14.562Z,5.37
2018-07-22T16:13:43.246Z,4.27
2018-07-22T16:16:11.898Z,5.60
2018-07-22T16:18:40.735Z,5.00
2018-07-22T16:21:09.419Z,6.27
2018-07-22T16:23:38.123Z,5.53
2018-07-22T16:26:06.802Z,6.70
2018-07-22T16:28:35.467Z,5.23
2018-07-22T16:31:04.136Z,5.50
2018-07-22T16:33:32.775Z,5.00
2018-07-22T16:36:01.548Z,7.57
2018-07-22T16:38:30.225Z,10.87
2018-07-22T16:40:58.897Z,40.53
2018-07-22T16:43:27.594Z,13.73
2018-07-22T16:45:56.299Z,5.00
2018-07-22T16:48:25.186Z,88.67
2018-07-22T16:50:53.844Z,11.67
2018-07-22T16:53:22.520Z,25.87
2018-07-22T16:55:51.300Z,6.13
2018-07-22T16:58:20.098Z,5.00
2018-07-22T17:00:48.761Z,4.80
2018-07-22T17:03:17.550Z,5.40
2018-07-22T17:05:46.322Z,4.47
2018-07-22T17:08:15.013Z,4.10
2018-07-22T17:10:43.683Z,4.33
2018-07-22T17:13:12.338Z,5.57
2018-07-22T17:15:41.010Z,5.00
2018-07-22T17:18:09.671Z,4.90
2018-07-22T17:20:38.358Z,5.00
2018-07-22T17:23:07.051Z,4.73
2018-07-22T17:25:35.718Z,4.53
2018-07-22T17:28:04.402Z,4.50
2018-07-22T17:30:33.064Z,4.10
2018-07-22T17:33:01.776Z,4.93
2018-07-22T17:35:30.502Z,4.40
2018-07-22T17:37:59.272Z,4.23
2018-07-22T17:40:28.058Z,4.63
2018-07-22T17:42:56.842Z,4.43
2018-07-22T17:45:25.941Z,3.87
2018-07-22T17:47:54.611Z,4.43
2018-07-22T17:50:23.326Z,4.07
2018-07-22T17:52:52.098Z,4.87
2018-07-22T17:55:20.761Z,4.30
2018-07-22T17:57:49.430Z,5.10
2018-07-22T18:00:18.282Z,4.80
2018-07-22T18:02:49.014Z,5.77
2018-07-22T18:05:17.478Z,5.07
2018-07-22T18:07:46.138Z,6.03
2018-07-22T18:10:14.863Z,10.50
2018-07-22T18:12:43.616Z,7.83
2018-07-22T18:15:12.327Z,5.53
2018-07-22T18:17:41.105Z,5.00
2018-07-22T18:20:09.798Z,6.20
2018-07-22T18:22:38.503Z,5.33
2018-07-22T18:25:07.193Z,6.07
2018-07-22T18:27:35.894Z,5.37
2018-07-22T18:30:04.743Z,4.70
2018-07-22T18:32:33.473Z,4.97
2018-07-22T18:35:02.222Z,5.17
2018-07-22T18:37:31.215Z,4.73
2018-07-22T18:39:59.922Z,4.73
2018-07-22T18:42:28.595Z,4.63
2018-07-22T18:44:57.299Z,5.13
2018-07-22T18:47:26.430Z,4.90
2018-07-22T18:49:55.420Z,4.90
2018-07-22T18:52:24.249Z,4.70
2018-07-22T18:54:53.339Z,5.10
2018-07-22T18:57:22.609Z,4.93
2018-07-22T18:59:51.704Z,4.60
2018-07-22T19:02:20.811Z,5.47
2018-07-22T19:04:49.908Z,5.53
2018-07-22T19:07:19.307Z,4.70
2018-07-22T19:09:48.295Z,5.37
2018-07-22T19:12:17.387Z,5.50
2018-07-22T19:14:46.483Z,5.13
2018-07-22T19:17:15.581Z,4.90
2018-07-22T19:19:44.666Z,5.53
2018-07-22T19:22:13.770Z,5.37
2018-07-22T19:24:42.871Z,5.27
2018-07-22T19:27:12.282Z,5.63
2018-07-22T19:29:41.365Z,4.93
2018-07-22T19:32:10.568Z,5.60
2018-07-22T19:34:39.761Z,5.13
2018-07-22T19:37:08.857Z,5.30
2018-07-22T19:39:37.854Z,5.73
2018-07-22T19:42:06.945Z,6.87
2018-07-22T19:44:35.942Z,6.30
2018-07-22T19:47:05.035Z,6.27
2018-07-22T19:49:34.552Z,5.80
2018-07-22T19:52:03.537Z,6.73
2018-07-22T19:54:32.635Z,6.87
2018-07-22T19:57:01.624Z,6.80
2018-07-22T19:59:30.826Z,6.53
2018-07-22T20:02:00.224Z,6.10
2018-07-22T20:04:29.221Z,5.87
2018-07-22T20:06:58.493Z,6.37
2018-07-22T20:09:27.532Z,6.23
2018-07-22T20:11:56.611Z,6.20
2018-07-22T20:14:25.703Z,5.63
2018-07-22T20:16:54.801Z,6.90
2018-07-22T20:19:23.894Z,6.23
2018-07-22T20:21:52.889Z,6.33
2018-07-22T20:24:22.065Z,6.93
2018-07-22T20:26:50.770Z,7.00
2018-07-22T20:29:20.009Z,6.73
2018-07-22T20:31:49.140Z,6.70
2018-07-22T20:34:18.161Z,6.50
2018-07-22T20:36:47.160Z,6.80
2018-07-22T20:39:16.151Z,6.43
2018-07-22T20:41:45.148Z,6.60
2018-07-22T20:44:13.878Z,6.27
2018-07-22T20:46:42.576Z,6.53
2018-07-22T20:49:11.250Z,6.40
2018-07-22T20:51:39.915Z,6.60
2018-07-22T20:54:08.616Z,6.47
2018-07-22T20:56:37.291Z,6.60
2018-07-22T20:59:05.954Z,6.43
2018-07-22T21:01:34.614Z,6.03
2018-07-22T21:04:03.302Z,5.80
2018-07-22T21:06:32.272Z,5.77
2018-07-22T21:09:00.939Z,6.23
2018-07-22T21:11:37.139Z,6.40
2018-07-22T21:14:05.878Z,6.27
2018-07-22T21:16:34.574Z,5.93
2018-07-22T21:19:03.406Z,5.43
2018-07-22T21:21:32.129Z,5.93
2018-07-22T21:24:00.774Z,5.50
2018-07-22T21:26:29.442Z,5.77
2018-07-22T21:28:58.111Z,6.00
2018-07-22T21:31:26.875Z,5.50
2018-07-22T21:33:55.555Z,5.67
2018-07-22T21:36:24.250Z,5.73
2018-07-22T21:38:52.936Z,5.53
2018-07-22T21:41:21.658Z,5.97
2018-07-22T21:43:50.406Z,5.10
2018-07-22T21:46:19.100Z,5.60
2018-07-22T21:48:47.791Z,5.83
2018-07-22T21:51:16.574Z,4.97
2018-07-22T21:53:45.262Z,5.30
2018-07-22T21:56:13.950Z,5.27
2018-07-22T21:58:42.634Z,5.53
2018-07-22T22:01:11.326Z,5.50
2018-07-22T22:03:39.998Z,6.97
2018-07-22T22:06:08.698Z,7.33
2018-07-22T22:08:37.476Z,7.80
2018-07-22T22:11:06.119Z,6.87
2018-07-22T22:13:34.800Z,7.43
2018-07-22T22:16:03.467Z,7.10
2018-07-22T22:18:32.128Z,6.83
2018-07-22T22:21:00.802Z,7.13
2018-07-22T22:23:29.502Z,7.47
2018-07-22T22:25:58.278Z,7.37
2018-07-22T22:28:26.970Z,8.07
2018-07-22T22:30:55.675Z,6.87
2018-07-22T22:33:24.342Z,7.70
2018-07-22T22:35:53.133Z,7.63
2018-07-22T22:38:21.943Z,7.37
2018-07-22T22:40:50.611Z,7.67
2018-07-22T22:43:19.353Z,6.73
2018-07-22T22:45:48.001Z,7.17
2018-07-22T22:48:16.687Z,7.40
2018-07-22T22:50:45.446Z,7.30
2018-07-22T22:53:14.138Z,6.13
2018-07-22T22:55:42.830Z,7.13
2018-07-22T22:58:17.103Z,7.70
2018-07-22T23:00:45.829Z,7.13
2018-07-22T23:03:14.614Z,6.67
2018-07-22T23:05:43.410Z,7.43
2018-07-22T23:08:12.170Z,7.07
2018-07-22T23:10:40.881Z,7.47
2018-07-22T23:13:09.544Z,6.23
2018-07-22T23:15:38.212Z,6.90
2018-07-22T23:18:06.914Z,6.73
2018-07-22T23:20:35.643Z,6.87
2018-07-22T23:23:04.818Z,7.13
2018-07-22T23:25:33.516Z,7.00
2018-07-22T23:28:02.305Z,6.97
2018-07-22T23:30:30.986Z,6.50
2018-07-22T23:32:59.771Z,6.43
2018-07-22T23:35:28.439Z,6.60
2018-07-22T23:37:57.095Z,6.30
2018-07-22T23:40:25.856Z,6.50
2018-07-22T23:42:54.531Z,6.03
2018-07-22T23:45:23.206Z,6.47
2018-07-22T23:47:52.018Z,6.30
2018-07-22T23:50:20.691Z,6.27
2018-07-22T23:52:49.366Z,5.87
2018-07-22T23:55:18.270Z,6.27
2018-07-22T23:57:46.958Z,6.30
